Time;durP1;ratioP1;P1;durP2;ratioP2;P2;SDS_P1;SDS_P2;PMS_P1;PMS_P2;Temp;Humidity;BMP_temperature;BMP_pressure;BME280_temperature;BME280_humidity;BME280_pressure;Samples;Min_cycle;Max_cycle;Signal;HPM_P1;HPM_P2
2023/02/23 00:01:38;;;;;;;19.20;11.43;;;7.90;99.90;;;;;;5053735;28;20358;-78
2023/02/23 00:04:07;;;;;;;21.25;12.63;;;7.90;99.90;;;;;;5051207;28;20231;-79
2023/02/23 00:06:36;;;;;;;19.60;13.25;;;7.90;99.90;;;;;;5052213;28;20248;-78
2023/02/23 00:09:11;;;;;;;25.45;13.05;;;7.80;99.90;;;;;;5066458;28;20283;-79
2023/02/23 00:11:38;;;;;;;28.27;14.27;;;7.70;99.90;;;;;;5051307;28;20236;-79
2023/02/23 00:14:07;;;;;;;28.77;15.57;;;7.70;99.90;;;;;;5058320;28;20275;-76
2023/02/23 00:16:34;;;;;;;27.77;13.43;;;7.70;99.90;;;;;;5046663;28;20255;-79
2023/02/23 00:19:06;;;;;;;24.13;13.20;;;7.70;99.90;;;;;;5070862;28;20232;-79
2023/02/23 00:21:34;;;;;;;26.20;14.75;;;7.70;99.90;;;;;;5058874;28;20238;-79
2023/02/23 00:24:03;;;;;;;23.55;13.38;;;7.70;99.90;;;;;;5063932;28;20263;-76
2023/02/23 00:26:34;;;;;;;21.60;14.18;;;7.70;99.90;;;;;;5061365;28;20225;-76
2023/02/23 00:29:08;;;;;;;23.58;12.27;;;7.70;99.90;;;;;;5062515;28;20239;-78
2023/02/23 00:31:37;;;;;;;24.08;13.13;;;7.70;99.90;;;;;;5069025;28;20849;-77
2023/02/23 00:34:07;;;;;;;29.88;15.15;;;7.70;99.90;;;;;;5056393;28;20220;-80
2023/02/23 00:36:35;;;;;;;26.52;14.90;;;7.70;99.90;;;;;;5068867;28;20228;-80
2023/02/23 00:39:20;;;;;;;21.65;13.38;;;7.80;99.90;;;;;;5055639;28;20240;-76
2023/02/23 00:41:47;;;;;;;25.33;13.40;;;7.80;99.90;;;;;;5056057;28;20325;-76
2023/02/23 00:44:15;;;;;;;23.88;14.25;;;7.80;99.90;;;;;;5063908;28;20225;-80
2023/02/23 00:46:43;;;;;;;19.40;13.63;;;7.80;99.90;;;;;;5057258;28;20248;-76
2023/02/23 00:49:13;;;;;;;21.40;15.40;;;7.80;99.90;;;;;;5056256;28;20229;-76
2023/02/23 00:51:40;;;;;;;21.40;14.25;;;7.70;99.90;;;;;;5066891;28;20641;-80
2023/02/23 00:54:08;;;;;;;21.33;13.90;;;7.70;99.90;;;;;;5054823;28;20662;-80
2023/02/23 00:56:36;;;;;;;29.33;14.38;;;7.70;99.90;;;;;;5059555;28;20231;-76
2023/02/23 00:59:03;;;;;;;19.30;13.75;;;7.70;99.90;;;;;;5061202;28;20224;-80
2023/02/23 01:01:30;;;;;;;17.52;13.32;;;7.70;99.90;;;;;;5055022;28;20645;-80
2023/02/23 01:03:58;;;;;;;26.98;15.13;;;7.70;99.90;;;;;;5068786;28;20231;-80
2023/02/23 01:06:26;;;;;;;23.70;14.18;;;7.60;99.90;;;;;;5055492;28;20244;-76
2023/02/23 01:08:55;;;;;;;23.65;14.45;;;7.70;99.90;;;;;;5058815;28;20302;-79
2023/02/23 01:11:29;;;;;;;26.98;14.95;;;7.70;99.90;;;;;;5055609;28;20231;-76
2023/02/23 01:13:59;;;;;;;27.33;16.15;;;7.70;99.90;;;;;;5068102;28;20228;-79
2023/02/23 01:16:28;;;;;;;22.40;13.98;;;7.60;99.90;;;;;;5055253;28;20224;-79
2023/02/23 01:18:58;;;;;;;27.98;14.20;;;7.50;99.90;;;;;;5054268;28;20225;-76
2023/02/23 01:21:35;;;;;;;23.92;13.90;;;7.50;99.90;;;;;;5065448;28;20711;-79
2023/02/23 01:24:05;;;;;;;18.52;12.93;;;7.60;99.90;;;;;;5054906;28;20224;-79
2023/02/23 01:26:35;;;;;;;20.30;14.05;;;7.60;99.90;;;;;;5060245;28;20227;-80
2023/02/23 01:29:08;;;;;;;24.73;15.50;;;7.50;99.90;;;;;;5061882;28;20740;-80
2023/02/23 01:31:36;;;;;;;23.23;15.10;;;7.50;99.90;;;;;;5064361;28;20267;-79
2023/02/23 01:34:06;;;;;;;26.45;16.13;;;7.50;99.90;;;;;;5054161;28;20333;-76
2023/02/23 01:36:38;;;;;;;22.02;15.93;;;7.50;99.90;;;;;;5068204;28;20570;-80
2023/02/23 01:39:07;;;;;;;23.80;14.15;;;7.50;99.90;;;;;;5063587;28;20247;-76
2023/02/23 01:41:36;;;;;;;28.77;15.20;;;7.60;99.90;;;;;;5061236;28;20740;-76
2023/02/23 01:44:05;;;;;;;28.85;17.08;;;7.60;99.90;;;;;;5066119;28;20642;-76
2023/02/23 01:46:34;;;;;;;22.48;14.60;;;7.60;99.90;;;;;;5067562;28;20274;-80
2023/02/23 01:49:02;;;;;;;21.80;14.10;;;7.50;99.90;;;;;;5057663;28;20299;-77
2023/02/23 01:51:34;;;;;;;23.20;15.13;;;7.50;99.90;;;;;;5067749;28;20305;-76
2023/02/23 01:54:07;;;;;;;21.05;14.43;;;7.40;99.90;;;;;;5045762;28;20228;-76
2023/02/23 01:56:42;;;;;;;23.02;15.27;;;7.40;99.90;;;;;;5054966;28;20702;-77
2023/02/23 01:59:14;;;;;;;27.40;17.27;;;7.40;99.90;;;;;;5053866;28;20227;-79
2023/02/23 02:01:47;;;;;;;20.08;14.93;;;7.40;99.90;;;;;;5054685;28;20237;-76
2023/02/23 02:04:15;;;;;;;24.45;16.08;;;7.40;99.90;;;;;;5053743;28;20239;-78
2023/02/23 02:06:45;;;;;;;21.08;15.10;;;7.40;99.90;;;;;;5054232;28;20232;-79
2023/02/23 02:09:17;;;;;;;27.33;15.93;;;7.30;99.90;;;;;;5053854;28;20225;-79
2023/02/23 02:11:52;;;;;;;20.27;16.02;;;7.30;99.90;;;;;;5053800;28;20313;-78
2023/02/23 02:14:22;;;;;;;20.02;16.13;;;7.30;99.90;;;;;;5053422;28;20248;-76
2023/02/23 02:17:14;;;;;;;24.73;14.80;;;7.20;99.90;;;;;;5053624;28;20256;-76
2023/02/23 02:20:13;;;;;;;23.60;14.63;;;7.30;99.90;;;;;;5053453;28;20559;-76
2023/02/23 02:23:08;;;;;;;24.88;16.10;;;7.30;99.90;;;;;;5065592;28;20320;-76
2023/02/23 02:25:58;;;;;;;27.92;14.63;;;7.40;99.90;;;;;;5067357;28;20680;-79
2023/02/23 02:28:50;;;;;;;23.17;14.30;;;7.30;99.90;;;;;;5065152;28;20262;-78
2023/02/23 02:32:01;;;;;;;25.58;17.20;;;7.40;99.90;;;;;;5055334;28;20302;-78
2023/02/23 02:35:10;;;;;;;28.83;14.60;;;7.30;99.90;;;;;;5053657;28;20225;-79
2023/02/23 02:38:04;;;;;;;27.23;15.68;;;7.30;99.90;;;;;;5032827;28;20527;-78
2023/02/23 02:40:51;;;;;;;22.48;14.50;;;7.20;99.90;;;;;;5053667;28;20244;-75
2023/02/23 02:43:25;;;;;;;31.10;17.75;;;7.20;99.90;;;;;;5052093;28;20228;-79
2023/02/23 02:45:57;;;;;;;22.58;16.17;;;7.20;99.90;;;;;;5060960;28;20244;-79
2023/02/23 02:48:33;;;;;;;22.40;14.63;;;7.20;99.90;;;;;;5051894;28;20230;-76
2023/02/23 02:51:16;;;;;;;24.40;16.17;;;7.10;99.90;;;;;;5052247;28;20301;-76
2023/02/23 02:53:51;;;;;;;23.70;16.08;;;7.00;99.90;;;;;;5051986;28;20224;-76
2023/02/23 02:56:22;;;;;;;26.35;16.05;;;7.00;99.90;;;;;;5053387;28;20216;-77
2023/02/23 02:58:52;;;;;;;19.73;15.07;;;6.90;99.90;;;;;;5051870;28;20621;-77
2023/02/23 04:17:56;;;;;;;22.95;14.02;;;6.90;99.90;;;;;;5053396;28;20616;-80
2023/02/23 04:20:24;;;;;;;29.05;18.50;;;6.90;99.90;;;;;;5052474;28;20228;-76
2023/02/23 04:22:51;;;;;;;23.05;15.50;;;6.90;99.90;;;;;;5051904;28;20282;-80
2023/02/23 04:25:21;;;;;;;24.15;16.25;;;6.90;99.90;;;;;;5052444;28;20224;-76
2023/02/23 04:27:51;;;;;;;24.20;16.27;;;7.00;99.90;;;;;;5052849;28;20240;-76
2023/02/23 04:30:24;;;;;;;30.02;15.45;;;7.00;99.90;;;;;;5052228;28;20224;-77
2023/02/23 04:32:51;;;;;;;23.42;14.98;;;7.00;99.90;;;;;;5052581;28;20726;-80
2023/02/23 04:35:21;;;;;;;26.35;16.75;;;7.10;99.90;;;;;;5051829;28;20221;-80
2023/02/23 04:37:48;;;;;;;26.77;16.10;;;7.10;99.90;;;;;;5052717;28;20239;-77
2023/02/23 04:40:16;;;;;;;27.02;17.40;;;7.10;99.90;;;;;;5051377;28;20235;-77
2023/02/23 04:42:43;;;;;;;27.38;16.52;;;7.00;99.90;;;;;;5052596;28;20643;-77
2023/02/23 04:45:11;;;;;;;24.80;14.98;;;7.00;99.90;;;;;;5051390;28;20286;-80
2023/02/23 04:47:38;;;;;;;25.17;17.33;;;7.00;99.90;;;;;;5052955;28;20255;-76
2023/02/23 04:50:07;;;;;;;27.70;16.55;;;7.00;99.90;;;;;;5052635;28;20233;-77
2023/02/23 04:52:36;;;;;;;24.63;16.83;;;6.90;99.90;;;;;;5050003;28;20221;-80
2023/02/23 04:55:03;;;;;;;21.40;16.20;;;6.90;99.90;;;;;;5052723;28;20262;-76
2023/02/23 04:57:30;;;;;;;29.88;16.95;;;6.80;99.90;;;;;;5051553;28;20229;-76
2023/02/23 04:59:57;;;;;;;24.27;16.38;;;6.80;99.90;;;;;;5052417;28;20674;-76
2023/02/23 05:02:25;;;;;;;23.65;15.73;;;6.80;99.90;;;;;;5055411;28;20255;-76
2023/02/23 05:04:52;;;;;;;22.60;15.90;;;6.80;99.90;;;;;;5056708;28;20320;-80
2023/02/23 05:07:19;;;;;;;22.08;16.70;;;6.70;99.90;;;;;;5055205;28;20228;-76
2023/02/23 05:09:47;;;;;;;31.45;15.85;;;6.70;99.90;;;;;;5055914;28;20232;-76
2023/02/23 05:12:14;;;;;;;24.85;16.55;;;6.70;99.90;;;;;;5055427;28;20221;-80
2023/02/23 05:14:41;;;;;;;24.65;16.13;;;6.70;99.90;;;;;;5055219;28;20225;-77
2023/02/23 05:17:10;;;;;;;23.80;14.85;;;6.70;99.90;;;;;;5055610;28;20224;-80
2023/02/23 05:19:37;;;;;;;24.17;17.13;;;6.70;99.90;;;;;;5053705;28;20225;-80
2023/02/23 05:22:05;;;;;;;23.67;17.35;;;6.70;99.90;;;;;;5055546;28;20229;-80
2023/02/23 05:24:32;;;;;;;32.85;18.13;;;6.70;99.90;;;;;;5054393;28;20286;-80
2023/02/23 05:27:04;;;;;;;26.48;16.27;;;6.60;99.90;;;;;;5055492;28;20225;-77
2023/02/23 05:29:31;;;;;;;25.73;16.02;;;6.60;99.90;;;;;;5054445;28;20320;-76
2023/02/23 05:31:58;;;;;;;22.75;16.33;;;6.50;99.90;;;;;;5055945;28;20247;-76
2023/02/23 05:34:26;;;;;;;23.42;14.82;;;6.50;99.90;;;;;;5063894;28;20224;-79
2023/02/23 05:36:53;;;;;;;27.10;15.98;;;6.50;99.90;;;;;;5063951;28;20228;-80
2023/02/23 05:39:21;;;;;;;22.58;14.93;;;6.50;99.90;;;;;;5068498;28;20228;-80
2023/02/23 05:41:48;;;;;;;26.05;16.65;;;6.50;99.90;;;;;;5053808;28;20643;-80
2023/02/23 05:44:16;;;;;;;24.10;16.05;;;6.50;99.90;;;;;;5068214;28;20290;-80
2023/02/23 05:46:45;;;;;;;25.65;16.98;;;6.50;99.90;;;;;;5058019;28;21762;-80
2023/02/23 05:49:12;;;;;;;28.05;16.45;;;6.50;99.90;;;;;;5056634;28;20667;-80
2023/02/23 05:51:39;;;;;;;22.63;15.30;;;6.50;99.90;;;;;;5055597;28;20217;-80
2023/02/23 05:54:07;;;;;;;19.70;16.13;;;6.50;99.90;;;;;;5055494;28;20231;-79
2023/02/23 05:56:34;;;;;;;21.27;13.50;;;6.50;99.90;;;;;;5054895;28;20224;-80
2023/02/23 05:59:04;;;;;;;20.60;17.10;;;6.50;99.90;;;;;;5055059;28;20224;-80
2023/02/23 06:01:33;;;;;;;25.45;17.40;;;6.50;99.90;;;;;;5054387;28;20232;-76
2023/02/23 06:04:00;;;;;;;24.48;16.52;;;6.40;99.90;;;;;;5055084;28;20248;-76
2023/02/23 06:06:28;;;;;;;26.38;14.85;;;6.40;99.90;;;;;;5053887;28;20532;-79
2023/02/23 06:08:55;;;;;;;31.58;17.05;;;6.40;99.90;;;;;;5055482;28;20540;-79
2023/02/23 06:11:22;;;;;;;23.80;15.55;;;6.30;99.90;;;;;;5054633;28;20740;-76
2023/02/23 06:13:50;;;;;;;23.88;14.82;;;6.40;99.90;;;;;;5051925;28;20597;-76
2023/02/23 06:16:16;;;;;;;23.58;15.75;;;6.50;99.90;;;;;;5054494;28;20240;-76
2023/02/23 06:18:45;;;;;;;24.67;13.90;;;6.50;99.90;;;;;;5053278;28;20259;-77
2023/02/23 06:21:13;;;;;;;23.25;15.77;;;6.50;99.90;;;;;;5053943;28;20545;-77
2023/02/23 06:23:41;;;;;;;21.77;15.60;;;6.60;99.90;;;;;;5054021;28;20315;-77
2023/02/23 06:26:08;;;;;;;23.40;15.35;;;6.60;99.90;;;;;;5054359;28;20678;-76
2023/02/23 06:28:35;;;;;;;27.38;16.75;;;6.60;99.90;;;;;;5034859;28;20527;-76
2023/02/23 06:31:06;;;;;;;22.83;15.45;;;6.60;99.90;;;;;;5046494;28;20362;-76
2023/02/23 06:33:34;;;;;;;20.10;14.77;;;6.60;99.90;;;;;;5053288;28;20266;-76
2023/02/23 06:36:02;;;;;;;28.85;16.00;;;6.60;99.90;;;;;;5053763;28;20551;-76
2023/02/23 06:38:29;;;;;;;20.38;15.95;;;6.60;99.90;;;;;;5054030;28;20224;-76
2023/02/23 06:40:56;;;;;;;25.33;15.18;;;6.60;99.90;;;;;;5053333;28;20622;-79
2023/02/23 06:43:27;;;;;;;27.92;16.77;;;6.60;99.90;;;;;;5053692;28;20224;-76
2023/02/23 06:45:55;;;;;;;30.35;17.50;;;6.50;99.90;;;;;;5053346;28;20295;-79
2023/02/23 06:48:22;;;;;;;25.73;17.08;;;6.60;99.90;;;;;;5053956;28;20626;-76
2023/02/23 06:50:50;;;;;;;25.80;16.15;;;6.60;99.90;;;;;;5025514;28;20222;-79
2023/02/23 06:53:19;;;;;;;22.88;15.98;;;6.60;99.90;;;;;;5053396;28;20658;-79
2023/02/23 06:55:49;;;;;;;28.30;17.48;;;6.60;99.90;;;;;;5052202;28;20300;-80
2023/02/23 06:58:16;;;;;;;17.35;14.65;;;6.60;99.90;;;;;;5054034;28;20589;-79
2023/02/23 07:00:43;;;;;;;27.33;15.77;;;6.70;99.90;;;;;;5053394;28;20308;-75
2023/02/23 07:03:18;;;;;;;27.48;16.08;;;6.70;99.90;;;;;;5053490;28;20225;-79
2023/02/23 07:05:49;;;;;;;26.42;16.80;;;6.80;99.90;;;;;;5024437;28;20229;-75
2023/02/23 07:08:17;;;;;;;30.05;17.83;;;6.80;99.90;;;;;;5053274;28;20229;-76
2023/02/23 07:10:46;;;;;;;24.85;17.08;;;6.80;99.90;;;;;;5052581;28;20228;-76
2023/02/23 07:13:15;;;;;;;31.00;17.52;;;6.80;99.90;;;;;;5053497;28;20688;-75
2023/02/23 07:15:42;;;;;;;22.65;16.75;;;6.70;99.90;;;;;;5052170;28;20286;-78
2023/02/23 07:18:16;;;;;;;28.58;16.95;;;6.70;99.90;;;;;;5053000;28;20225;-79
2023/02/23 07:20:43;;;;;;;28.42;17.25;;;6.70;99.90;;;;;;5053553;28;20672;-75
2023/02/23 07:23:12;;;;;;;22.73;15.30;;;6.70;99.90;;;;;;5052343;28;20285;-79
2023/02/23 07:25:39;;;;;;;22.13;16.52;;;6.80;99.90;;;;;;5052894;28;20256;-79
2023/02/23 07:28:08;;;;;;;29.60;17.33;;;6.80;99.90;;;;;;5053065;28;20307;-75
2023/02/23 07:30:38;;;;;;;21.88;17.55;;;6.80;99.90;;;;;;5053181;28;20829;-75
2023/02/23 07:33:05;;;;;;;21.33;16.30;;;6.90;99.90;;;;;;5052409;28;20236;-76
2023/02/23 07:35:32;;;;;;;22.75;17.77;;;6.90;99.90;;;;;;5053281;28;20654;-76
2023/02/23 07:37:59;;;;;;;25.23;17.55;;;6.90;99.90;;;;;;5051014;28;20336;-76
2023/02/23 07:40:27;;;;;;;24.73;18.17;;;7.00;99.90;;;;;;5052868;28;20275;-76
2023/02/23 07:42:54;;;;;;;28.10;18.25;;;7.10;99.90;;;;;;5052013;28;20233;-76
2023/02/23 07:45:23;;;;;;;27.65;18.65;;;7.10;99.90;;;;;;5054923;28;20280;-78
2023/02/23 07:47:51;;;;;;;27.00;17.67;;;7.10;99.90;;;;;;5054120;28;20225;-76
2023/02/23 07:50:18;;;;;;;31.25;18.92;;;7.20;99.90;;;;;;5056322;28;20221;-76
2023/02/23 07:52:46;;;;;;;20.65;16.33;;;7.10;99.90;;;;;;5056603;28;20263;-79
2023/02/23 07:55:13;;;;;;;23.00;16.65;;;7.20;99.90;;;;;;5057875;28;20228;-76
2023/02/23 07:57:41;;;;;;;27.42;18.77;;;7.30;99.90;;;;;;5069707;28;20264;-80
2023/02/23 08:00:16;;;;;;;27.25;18.20;;;7.30;99.90;;;;;;5047300;28;20224;-79
2023/02/23 08:02:49;;;;;;;22.52;16.67;;;7.30;99.90;;;;;;5067473;28;20242;-79
2023/02/23 08:05:16;;;;;;;22.02;17.17;;;7.40;99.90;;;;;;5065997;28;20293;-79
2023/02/23 08:07:44;;;;;;;25.30;16.27;;;7.40;99.90;;;;;;5056311;28;20228;-80
2023/02/23 08:10:12;;;;;;;20.73;16.33;;;7.40;99.90;;;;;;5052777;28;20248;-76
2023/02/23 08:12:39;;;;;;;30.25;18.00;;;7.50;99.90;;;;;;5054811;28;20249;-79
2023/02/23 08:15:08;;;;;;;27.38;16.75;;;7.50;99.90;;;;;;5060039;28;20224;-79
2023/02/23 08:17:35;;;;;;;27.13;15.25;;;7.60;99.90;;;;;;5070898;28;20234;-79
2023/02/23 08:20:04;;;;;;;28.20;18.38;;;7.60;99.90;;;;;;5064973;28;20270;-79
2023/02/23 08:22:38;;;;;;;20.27;16.42;;;7.60;99.90;;;;;;5070117;28;20301;-79
2023/02/23 08:25:06;;;;;;;27.50;18.13;;;7.70;99.90;;;;;;5060736;28;20251;-79
2023/02/23 08:27:34;;;;;;;25.50;16.55;;;7.70;99.90;;;;;;5054570;28;20307;-75
2023/02/23 08:30:04;;;;;;;36.28;17.90;;;7.70;99.90;;;;;;5053284;28;20224;-75
2023/02/23 08:32:34;;;;;;;24.50;16.02;;;7.80;99.90;;;;;;5052697;28;20216;-76
2023/02/23 08:35:03;;;;;;;30.13;18.10;;;7.90;99.90;;;;;;5052899;28;20242;-76
2023/02/23 08:37:30;;;;;;;22.90;16.45;;;7.80;99.90;;;;;;5055740;28;20229;-79
2023/02/23 08:39:59;;;;;;;27.85;17.48;;;7.90;99.90;;;;;;5056503;28;20657;-78
2023/02/23 08:42:26;;;;;;;24.20;17.13;;;8.00;99.90;;;;;;5055035;28;20247;-79
2023/02/23 08:44:57;;;;;;;28.20;19.35;;;8.10;99.90;;;;;;5056133;28;20240;-80
2023/02/23 08:47:25;;;;;;;26.42;18.55;;;8.10;99.90;;;;;;5047500;28;20659;-76
2023/02/23 08:49:53;;;;;;;30.00;19.05;;;8.10;99.90;;;;;;5056153;28;20224;-80
2023/02/23 08:52:22;;;;;;;26.23;16.90;;;8.20;99.90;;;;;;5055275;28;20239;-80
2023/02/23 08:54:49;;;;;;;22.92;17.40;;;8.20;99.90;;;;;;5056143;28;20698;-76
2023/02/23 08:57:16;;;;;;;24.67;16.88;;;8.30;99.90;;;;;;5054882;28;20225;-75
2023/02/23 08:59:43;;;;;;;28.98;18.35;;;8.40;99.90;;;;;;5055596;28;20236;-76
2023/02/23 09:02:13;;;;;;;24.55;18.33;;;8.30;99.90;;;;;;5055797;28;20236;-76
2023/02/23 09:04:42;;;;;;;30.38;19.13;;;8.40;99.90;;;;;;5054085;28;20228;-78
2023/02/23 09:07:32;;;;;;;25.98;18.70;;;8.40;99.90;;;;;;5055867;28;20232;-77
2023/02/23 09:10:04;;;;;;;26.08;16.63;;;8.50;99.90;;;;;;5036813;28;20648;-79
2023/02/23 09:12:31;;;;;;;24.70;19.48;;;8.50;99.90;;;;;;5047959;28;20224;-76
2023/02/23 09:14:59;;;;;;;35.38;20.00;;;8.60;99.90;;;;;;5055899;28;20231;-79
2023/02/23 09:17:26;;;;;;;27.30;17.75;;;8.60;99.90;;;;;;5054438;28;20228;-75
2023/02/23 09:19:53;;;;;;;20.85;17.38;;;8.60;99.90;;;;;;5055465;28;20224;-75
2023/02/23 09:22:20;;;;;;;23.73;18.55;;;8.60;99.90;;;;;;5054876;28;20221;-76
2023/02/23 09:24:49;;;;;;;23.40;18.00;;;8.70;99.90;;;;;;5052455;28;20196;-75
2023/02/23 09:27:18;;;;;;;22.25;17.33;;;8.70;99.90;;;;;;5054770;28;20711;-75
2023/02/23 09:29:45;;;;;;;24.25;17.63;;;8.80;99.90;;;;;;5055089;28;20225;-76
2023/02/23 09:32:19;;;;;;;24.23;16.75;;;8.80;99.90;;;;;;5026580;28;20225;-76
2023/02/23 09:34:47;;;;;;;17.80;15.52;;;8.80;99.90;;;;;;5054655;28;20570;-79
2023/02/23 09:37:15;;;;;;;21.75;15.75;;;8.90;99.90;;;;;;5053904;28;20605;-79
2023/02/23 09:39:44;;;;;;;23.52;18.83;;;9.00;99.90;;;;;;5055349;28;20651;-79
2023/02/23 09:42:24;;;;;;;25.13;17.33;;;9.00;99.90;;;;;;5053989;28;20255;-80
2023/02/23 09:45:04;;;;;;;35.53;18.42;;;9.00;99.90;;;;;;5036664;28;20312;-79
2023/02/23 09:47:39;;;;;;;39.00;24.42;;;9.00;99.90;;;;;;5056549;28;20311;-79
2023/02/23 09:50:15;;;;;;;25.92;18.13;;;9.10;99.90;;;;;;5071420;28;20314;-76
2023/02/23 09:52:47;;;;;;;25.10;18.50;;;9.10;99.90;;;;;;5063286;28;20285;-76
2023/02/23 09:55:15;;;;;;;32.80;23.73;;;9.20;99.90;;;;;;5046017;28;20244;-80
2023/02/23 09:57:46;;;;;;;26.05;21.35;;;9.20;99.90;;;;;;5052670;28;20256;-76
2023/02/23 10:00:26;;;;;;;22.38;18.30;;;9.20;99.90;;;;;;5053662;28;20225;-76
2023/02/23 10:03:17;;;;;;;25.95;17.60;;;9.30;99.90;;;;;;5054531;28;20562;-76
2023/02/23 10:05:48;;;;;;;23.83;16.58;;;9.40;99.90;;;;;;5054725;28;20251;-76
2023/02/23 10:08:30;;;;;;;26.30;17.05;;;9.50;99.90;;;;;;5054835;28;20294;-79
2023/02/23 10:11:10;;;;;;;23.02;15.90;;;9.50;99.90;;;;;;5053709;28;20520;-79
2023/02/23 10:13:54;;;;;;;25.60;17.75;;;9.70;99.90;;;;;;5054447;28;20996;-79
2023/02/23 10:16:30;;;;;;;19.48;15.98;;;9.70;99.90;;;;;;5055248;28;20212;-79
2023/02/23 10:19:06;;;;;;;21.17;15.82;;;9.80;99.90;;;;;;5054729;28;20661;-79
2023/02/23 10:21:38;;;;;;;19.95;15.82;;;9.90;99.90;;;;;;5054088;28;20282;-79
2023/02/23 10:24:13;;;;;;;20.20;16.17;;;10.00;99.90;;;;;;5054488;28;20314;-79
2023/02/23 10:26:46;;;;;;;21.58;15.95;;;10.00;99.90;;;;;;5054318;28;20691;-76
2023/02/23 10:29:26;;;;;;;23.45;15.95;;;10.10;99.90;;;;;;5054794;28;20589;-76
2023/02/23 10:32:01;;;;;;;23.95;17.70;;;10.20;99.90;;;;;;5055024;28;20612;-75
2023/02/23 10:34:30;;;;;;;26.70;18.60;;;10.20;99.90;;;;;;5054331;28;20216;-79
2023/02/23 10:37:00;;;;;;;25.25;15.73;;;10.30;99.90;;;;;;5071713;28;20293;-79
2023/02/23 10:39:29;;;;;;;26.25;19.98;;;10.40;99.90;;;;;;5072025;28;20232;-79
2023/02/23 10:42:07;;;;;;;22.85;18.42;;;10.40;99.90;;;;;;5074264;28;20224;-79
2023/02/23 10:44:36;;;;;;;21.60;16.08;;;10.50;99.90;;;;;;5072428;28;20235;-78
2023/02/23 10:47:11;;;;;;;21.13;15.52;;;10.50;99.90;;;;;;5072583;28;20247;-75
2023/02/23 10:49:44;;;;;;;20.08;15.63;;;10.60;99.90;;;;;;5072131;28;20299;-79
2023/02/23 10:52:13;;;;;;;22.73;18.02;;;10.70;99.90;;;;;;5062918;28;20216;-80
2023/02/23 10:54:46;;;;;;;24.30;16.52;;;10.80;99.90;;;;;;5060850;28;20529;-79
2023/02/23 10:57:22;;;;;;;20.50;17.30;;;10.90;99.90;;;;;;5065941;28;20224;-78
2023/02/23 11:00:31;;;;;;;24.05;21.08;;;10.90;99.90;;;;;;5073871;28;20285;-75
2023/02/23 11:03:02;;;;;;;23.63;17.48;;;11.00;99.90;;;;;;5014785;28;20228;-79
2023/02/23 11:05:43;;;;;;;27.15;21.48;;;11.00;99.90;;;;;;5053280;28;20216;-75
2023/02/23 11:08:18;;;;;;;22.50;17.85;;;11.10;99.90;;;;;;5053584;28;20728;-79
2023/02/23 11:11:00;;;;;;;21.42;17.60;;;11.10;99.90;;;;;;5053161;28;20626;-76
2023/02/23 11:13:29;;;;;;;28.98;19.00;;;11.20;99.90;;;;;;5044006;28;20223;-80
2023/02/23 11:16:08;;;;;;;23.55;18.13;;;11.20;99.90;;;;;;5052627;28;20286;-76
2023/02/23 11:18:36;;;;;;;22.77;17.33;;;11.30;99.90;;;;;;5051969;28;20216;-76
2023/02/23 11:21:03;;;;;;;21.25;17.70;;;11.30;99.90;;;;;;5053252;28;20220;-76
2023/02/23 11:23:35;;;;;;;17.33;15.38;;;11.40;99.90;;;;;;5048469;28;20730;-80
2023/02/23 11:26:05;;;;;;;23.40;18.23;;;11.40;99.90;;;;;;5052841;28;20220;-76
2023/02/23 11:28:37;;;;;;;17.98;15.27;;;11.40;99.90;;;;;;5051265;28;20237;-77
2023/02/23 11:31:16;;;;;;;21.20;15.25;;;11.50;99.90;;;;;;5053090;28;20248;-78
2023/02/23 11:33:44;;;;;;;22.23;15.30;;;11.50;99.90;;;;;;5051427;28;20243;-80
2023/02/23 11:36:18;;;;;;;18.75;15.40;;;11.50;99.90;;;;;;5053256;28;20225;-80
2023/02/23 11:38:46;;;;;;;18.67;14.35;;;11.60;99.90;;;;;;5042493;28;20232;-76
2023/02/23 11:41:33;;;;;;;19.77;16.02;;;11.60;99.90;;;;;;5050381;28;20221;-79
2023/02/23 11:44:02;;;;;;;23.85;17.25;;;11.70;99.90;;;;;;5050494;28;20313;-76
2023/02/23 11:46:35;;;;;;;21.80;17.48;;;11.70;99.90;;;;;;5051089;28;20217;-76
2023/02/23 11:49:08;;;;;;;22.40;17.35;;;11.80;99.90;;;;;;5049430;28;20229;-79
2023/02/23 11:51:53;;;;;;;19.63;17.58;;;11.90;99.90;;;;;;5050598;28;20303;-75
2023/02/23 11:54:27;;;;;;;26.80;19.00;;;11.90;99.90;;;;;;5051736;28;20231;-76
2023/02/23 11:56:56;;;;;;;17.98;14.95;;;12.00;99.90;;;;;;5053083;28;20251;-75
2023/02/23 11:59:30;;;;;;;22.33;18.15;;;12.10;99.90;;;;;;5051841;28;20224;-78
2023/02/23 12:02:06;;;;;;;26.33;20.25;;;12.10;99.90;;;;;;5052701;28;20304;-79
2023/02/23 12:04:36;;;;;;;27.00;20.73;;;12.20;99.90;;;;;;5042204;28;20704;-79
2023/02/23 12:07:43;;;;;;;26.50;21.23;;;12.20;99.90;;;;;;5052130;28;20221;-79
2023/02/23 12:10:16;;;;;;;26.33;20.13;;;12.30;99.90;;;;;;4952814;28;20248;-78
2023/02/23 12:12:51;;;;;;;26.20;19.77;;;12.30;99.90;;;;;;5045250;28;20232;-75
2023/02/23 12:15:27;;;;;;;23.17;19.92;;;12.40;99.90;;;;;;5056927;28;20232;-79
2023/02/23 12:18:00;;;;;;;22.45;17.27;;;12.40;99.90;;;;;;5056778;28;20232;-79
2023/02/23 12:20:30;;;;;;;24.52;18.98;;;12.40;99.90;;;;;;5056572;28;20558;-79
2023/02/23 12:23:06;;;;;;;20.80;16.60;;;12.50;99.90;;;;;;5056747;28;20339;-76
2023/02/23 12:25:38;;;;;;;20.50;17.63;;;12.60;99.90;;;;;;5056074;28;20212;-76
2023/02/23 12:28:13;;;;;;;21.77;17.08;;;12.60;99.90;;;;;;5056734;28;20220;-80
2023/02/23 12:30:45;;;;;;;19.52;17.42;;;12.70;99.90;;;;;;5066850;28;20219;-79
2023/02/23 12:33:18;;;;;;;24.90;18.40;;;12.70;99.90;;;;;;5056436;28;20224;-76
2023/02/23 12:35:51;;;;;;;22.08;16.02;;;12.70;99.90;;;;;;5055882;28;20290;-76
2023/02/23 12:38:27;;;;;;;22.40;15.70;;;12.80;99.90;;;;;;5056420;28;20320;-75
2023/02/23 12:41:05;;;;;;;24.07;18.80;;;12.80;99.90;;;;;;5057353;28;20960;-78
2023/02/23 12:43:39;;;;;;;20.52;17.02;;;12.90;99.90;;;;;;5057137;28;20528;-76
2023/02/23 12:46:12;;;;;;;21.58;17.80;;;12.90;99.90;;;;;;5074473;28;20228;-75
2023/02/23 12:48:50;;;;;;;19.83;17.27;;;12.90;99.90;;;;;;5074572;28;20315;-77
2023/02/23 12:51:26;;;;;;;27.02;18.42;;;13.00;99.90;;;;;;5076257;28;20216;-76
2023/02/23 12:53:53;;;;;;;22.00;17.55;;;13.00;99.90;;;;;;5076064;28;20223;-77
2023/02/23 12:56:35;;;;;;;27.48;19.77;;;13.00;99.90;;;;;;5076537;28;20224;-80
2023/02/23 12:59:27;;;;;;;23.35;17.52;;;13.00;99.90;;;;;;5076014;28;20608;-80
2023/02/23 13:01:59;;;;;;;21.67;17.63;;;13.10;99.90;;;;;;5061316;28;20592;-79
2023/02/23 13:04:50;;;;;;;25.48;20.20;;;13.10;99.90;;;;;;5056063;28;20342;-79
2023/02/23 13:07:26;;;;;;;34.13;22.97;;;13.20;99.90;;;;;;5055981;28;20683;-79
2023/02/23 13:10:09;;;;;;;27.13;20.65;;;13.10;99.90;;;;;;5054035;28;20572;-78
2023/02/23 13:12:48;;;;;;;24.27;18.17;;;13.20;99.90;;;;;;5034766;28;20225;-78
2023/02/23 13:15:34;;;;;;;21.75;16.42;;;13.20;99.90;;;;;;5049502;28;20696;-77
2023/02/23 13:18:07;;;;;;;20.60;17.07;;;13.20;99.90;;;;;;5055446;28;20744;-78
2023/02/23 13:20:39;;;;;;;24.67;17.38;;;13.20;99.90;;;;;;5056256;28;20471;-79
2023/02/23 13:23:16;;;;;;;23.98;17.67;;;13.20;99.90;;;;;;5053900;28;20236;-78
2023/02/23 13:25:50;;;;;;;21.23;17.73;;;13.20;99.90;;;;;;5067307;28;20223;-80
2023/02/23 13:28:21;;;;;;;20.95;18.60;;;13.20;99.90;;;;;;5074531;28;20736;-75
2023/02/23 13:30:48;;;;;;;18.87;15.90;;;13.20;99.90;;;;;;5074905;28;20228;-76
2023/02/23 13:33:26;;;;;;;22.33;17.47;;;13.20;99.90;;;;;;5075537;28;20795;-75
2023/02/23 13:35:56;;;;;;;22.85;18.88;;;13.20;99.90;;;;;;5063193;28;20555;-76
2023/02/23 13:38:33;;;;;;;26.58;20.83;;;13.20;99.90;;;;;;5060256;28;20311;-75
2023/02/23 13:41:09;;;;;;;28.40;20.73;;;13.20;99.90;;;;;;5071220;28;20340;-79
2023/02/23 13:43:44;;;;;;;24.90;18.83;;;13.20;99.90;;;;;;5075257;28;20599;-79
2023/02/23 13:46:27;;;;;;;22.10;18.88;;;13.20;99.90;;;;;;5075058;28;20269;-76
2023/02/23 13:49:00;;;;;;;21.83;17.88;;;13.20;99.90;;;;;;5073829;28;20566;-75
2023/02/23 13:51:37;;;;;;;28.60;25.02;;;13.20;99.90;;;;;;5075285;28;20228;-81
2023/02/23 13:54:23;;;;;;;26.15;20.42;;;13.20;99.90;;;;;;5074677;28;20258;-78
2023/02/23 13:56:55;;;;;;;35.65;24.65;;;13.20;99.90;;;;;;5074624;28;20220;-78
2023/02/23 13:59:32;;;;;;;29.57;22.20;;;13.20;99.90;;;;;;5074773;28;20224;-79
2023/02/23 14:02:08;;;;;;;27.60;24.30;;;13.10;99.90;;;;;;5073943;28;20561;-75
2023/02/23 14:04:36;;;;;;;25.65;21.70;;;13.10;99.90;;;;;;5074785;28;20267;-78
2023/02/23 14:07:17;;;;;;;27.55;22.67;;;13.10;99.90;;;;;;5074225;28;20246;-78
2023/02/23 14:09:53;;;;;;;30.48;23.48;;;13.10;99.90;;;;;;5074306;28;20224;-78
2023/02/23 14:12:25;;;;;;;29.42;24.48;;;13.00;99.90;;;;;;5074017;28;20231;-78
2023/02/23 14:14:54;;;;;;;24.40;21.15;;;13.00;99.90;;;;;;5045396;28;20312;-79